Time;durP1;ratioP1;P1;durP2;ratioP2;P2;SDS_P1;SDS_P2;PMS_P1;PMS_P2;Temp;Humidity;BMP_temperature;BMP_pressure;BME280_temperature;BME280_humidity;BME280_pressure;Samples;Min_cycle;Max_cycle;Signal;HPM_P1;HPM_P2
2022/04/17 00:02:06;;;;;;;6.93;4.70;;;13.90;99.90;;;;;;6241471;23;20062;-88
2022/04/17 00:04:31;;;;;;;12.25;4.80;;;13.90;99.90;;;;;;6241355;23;20020;-89
2022/04/17 00:06:58;;;;;;;6.85;4.90;;;13.90;99.90;;;;;;6242528;23;20023;-87
2022/04/17 00:09:23;;;;;;;7.20;4.90;;;13.90;99.90;;;;;;6241558;23;20028;-87
2022/04/17 00:11:49;;;;;;;11.50;5.00;;;13.90;99.90;;;;;;6252355;23;20383;-87
2022/04/17 00:14:15;;;;;;;7.15;4.90;;;13.90;99.90;;;;;;6255918;23;20076;-87
2022/04/17 00:16:40;;;;;;;7.65;5.18;;;13.90;99.90;;;;;;6230298;23;20004;-88
2022/04/17 00:19:07;;;;;;;6.63;4.95;;;13.90;99.90;;;;;;6214191;23;19996;-88
2022/04/17 00:21:33;;;;;;;7.18;5.20;;;13.80;99.90;;;;;;6241306;23;20004;-87
2022/04/17 00:23:59;;;;;;;7.45;4.93;;;13.80;99.90;;;;;;6242165;23;20355;-88
2022/04/17 00:26:25;;;;;;;5.05;4.55;;;13.80;99.90;;;;;;6241101;23;20067;-89
2022/04/17 00:28:50;;;;;;;8.98;4.70;;;13.80;99.90;;;;;;6241088;23;20289;-88
2022/04/17 00:31:16;;;;;;;6.32;4.65;;;13.80;99.90;;;;;;6214263;23;20054;-87
2022/04/17 00:33:43;;;;;;;6.30;4.78;;;13.70;99.90;;;;;;6241270;23;20478;-88
2022/04/17 00:36:08;;;;;;;7.65;4.68;;;13.70;99.90;;;;;;6241153;23;20004;-88
2022/04/17 00:38:34;;;;;;;7.63;4.90;;;13.60;99.90;;;;;;6214218;23;20085;-88
2022/04/17 00:41:01;;;;;;;6.35;4.70;;;13.70;99.90;;;;;;6241991;23;20003;-87
2022/04/17 00:43:33;;;;;;;7.18;5.00;;;13.70;99.90;;;;;;6215111;23;20014;-86
2022/04/17 00:46:00;;;;;;;6.25;4.88;;;13.60;99.90;;;;;;6241980;23;20012;-87
2022/04/17 00:48:26;;;;;;;7.32;4.68;;;13.60;99.90;;;;;;6240608;23;20004;-87
2022/04/17 00:50:55;;;;;;;6.55;4.90;;;13.60;99.90;;;;;;6240931;23;20638;-87
2022/04/17 00:53:22;;;;;;;6.55;4.80;;;13.60;99.90;;;;;;6240869;23;20003;-88
2022/04/17 00:55:49;;;;;;;6.47;5.15;;;13.60;99.90;;;;;;6213848;23;20015;-88
2022/04/17 00:58:15;;;;;;;7.10;5.00;;;13.50;99.90;;;;;;6240639;23;20424;-88
2022/04/17 01:00:41;;;;;;;10.07;5.35;;;13.50;99.90;;;;;;6240494;23;20000;-87
2022/04/17 01:03:07;;;;;;;7.00;5.60;;;13.50;99.90;;;;;;6240336;23;20437;-88
2022/04/17 01:05:33;;;;;;;5.90;5.07;;;13.50;99.90;;;;;;6240806;23;20008;-87
2022/04/17 01:07:59;;;;;;;6.80;5.00;;;13.50;99.90;;;;;;6214804;23;20008;-87
2022/04/17 01:10:25;;;;;;;8.48;5.30;;;13.40;99.90;;;;;;6213889;23;20544;-87
2022/04/17 01:12:53;;;;;;;8.35;4.70;;;13.40;99.90;;;;;;6213758;23;20457;-87
2022/04/17 01:15:20;;;;;;;6.35;5.00;;;13.40;99.90;;;;;;6213626;23;20007;-87
2022/04/17 01:17:45;;;;;;;5.60;4.55;;;13.40;99.90;;;;;;6213881;23;20414;-87
2022/04/17 01:20:12;;;;;;;6.57;5.30;;;13.40;99.90;;;;;;6213841;23;20011;-87
2022/04/17 01:22:37;;;;;;;6.20;4.90;;;13.30;99.90;;;;;;6240570;23;20003;-87
2022/04/17 01:27:50;;;;;;;7.30;4.50;;;13.20;99.90;;;;;;6164130;23;20004;-87
2022/04/17 01:30:16;;;;;;;8.90;4.82;;;13.30;99.90;;;;;;6240806;23;20004;-88
2022/04/17 01:32:42;;;;;;;7.68;4.55;;;13.20;99.90;;;;;;6240606;23;19996;-88
2022/04/17 01:35:08;;;;;;;5.10;4.60;;;13.20;99.90;;;;;;6240811;23;20015;-86
2022/04/17 01:37:33;;;;;;;5.93;5.03;;;13.20;99.90;;;;;;6241607;23;19996;-87
2022/04/17 01:39:59;;;;;;;6.55;4.75;;;13.10;99.90;;;;;;6241554;23;20004;-87
2022/04/17 01:42:25;;;;;;;7.72;4.95;;;13.10;99.90;;;;;;6213635;23;20008;-87
2022/04/17 01:44:51;;;;;;;7.75;5.22;;;13.10;99.90;;;;;;6240588;23;20130;-86
2022/04/17 01:47:17;;;;;;;7.75;5.28;;;13.10;99.90;;;;;;6240538;23;20459;-87
2022/04/17 01:49:42;;;;;;;5.90;4.93;;;13.00;99.90;;;;;;6240934;23;20000;-88
2022/04/17 01:52:08;;;;;;;6.57;4.90;;;13.00;99.90;;;;;;6213561;23;20012;-87
2022/04/17 01:54:34;;;;;;;6.55;5.28;;;13.00;99.90;;;;;;6214566;23;20011;-89
2022/04/17 01:57:00;;;;;;;7.88;5.15;;;13.00;99.90;;;;;;6213564;23;20388;-89
2022/04/17 01:59:25;;;;;;;6.97;5.10;;;13.00;99.90;;;;;;6240641;23;20642;-88
2022/04/17 02:01:52;;;;;;;6.65;5.10;;;13.00;99.90;;;;;;6240553;23;20011;-87
2022/04/17 02:04:17;;;;;;;6.68;5.50;;;12.90;99.90;;;;;;6240489;23;20017;-87
2022/04/17 02:06:44;;;;;;;5.10;4.60;;;12.80;99.90;;;;;;6240534;23;20092;-90
2022/04/17 02:09:11;;;;;;;6.30;5.35;;;12.80;99.90;;;;;;6240396;23;20004;-85
2022/04/17 02:11:38;;;;;;;8.33;5.60;;;12.80;99.90;;;;;;6240958;23;20056;-88
2022/04/17 02:14:06;;;;;;;6.32;5.25;;;12.70;99.90;;;;;;6217104;23;20008;-85
2022/04/17 02:16:32;;;;;;;7.07;5.50;;;12.70;99.90;;;;;;6244049;23;20004;-87
2022/04/17 02:19:00;;;;;;;7.55;5.60;;;12.70;99.90;;;;;;6242725;23;20288;-85
2022/04/17 02:21:26;;;;;;;7.85;5.70;;;12.70;99.90;;;;;;6242781;23;20008;-86
2022/04/17 02:23:52;;;;;;;7.93;6.10;;;12.70;99.90;;;;;;6242280;23;20019;-84
2022/04/17 02:26:18;;;;;;;8.57;5.85;;;12.70;99.90;;;;;;6242158;23;20031;-85
2022/04/17 02:28:44;;;;;;;10.70;5.65;;;12.70;99.90;;;;;;6215379;23;20004;-85
2022/04/17 02:31:11;;;;;;;7.28;5.82;;;12.60;99.90;;;;;;6242373;23;20031;-85
2022/04/17 02:33:37;;;;;;;7.70;5.50;;;12.60;99.90;;;;;;6216403;23;20003;-86
2022/04/17 02:36:04;;;;;;;7.53;5.97;;;12.60;99.90;;;;;;6243063;23;20004;-85
2022/04/17 02:38:30;;;;;;;7.20;5.72;;;12.50;99.90;;;;;;6241972;23;19996;-85
2022/04/17 02:40:56;;;;;;;9.82;5.95;;;12.40;99.90;;;;;;6241863;23;20004;-85
2022/04/17 02:43:22;;;;;;;8.90;5.63;;;12.40;99.90;;;;;;6242106;23;20018;-86
2022/04/17 02:45:50;;;;;;;9.55;6.15;;;12.40;99.90;;;;;;6215331;23;20310;-85
2022/04/17 02:48:16;;;;;;;7.75;6.03;;;12.40;99.90;;;;;;6242007;23;20031;-85
2022/04/17 02:50:41;;;;;;;8.82;6.22;;;12.30;99.90;;;;;;6242181;23;20003;-86
2022/04/17 02:53:07;;;;;;;7.80;6.13;;;12.20;99.90;;;;;;6243029;23;19996;-86
2022/04/17 02:55:33;;;;;;;7.60;5.80;;;12.30;99.90;;;;;;6243009;23;20023;-86
2022/04/17 02:57:59;;;;;;;8.23;5.82;;;12.20;99.90;;;;;;6215348;23;20008;-86
2022/04/17 03:00:27;;;;;;;7.50;5.88;;;12.20;99.90;;;;;;6215377;23;20004;-85
2022/04/17 03:05:37;;;;;;;8.25;5.82;;;12.10;99.90;;;;;;6243002;23;20066;-86
2022/04/17 03:08:11;;;;;;;6.80;5.57;;;12.10;99.90;;;;;;6215046;23;20008;-86
2022/04/17 03:10:48;;;;;;;7.70;5.57;;;12.10;99.90;;;;;;6216213;23;20011;-87
2022/04/17 03:13:14;;;;;;;8.38;5.93;;;12.00;99.90;;;;;;6241838;23;20004;-85
2022/04/17 03:15:40;;;;;;;6.43;5.30;;;12.00;99.90;;;;;;6241705;23;20000;-86
2022/04/17 03:18:10;;;;;;;9.13;5.85;;;12.00;99.90;;;;;;6215823;23;20313;-85
2022/04/17 03:20:37;;;;;;;7.78;5.35;;;12.00;99.90;;;;;;6242685;23;20018;-86
2022/04/17 03:23:03;;;;;;;9.32;6.10;;;11.90;99.90;;;;;;6241631;23;20008;-86
2022/04/17 03:25:30;;;;;;;6.55;5.50;;;11.90;99.90;;;;;;6214555;23;20015;-86
2022/04/17 03:27:57;;;;;;;8.68;6.10;;;11.90;99.90;;;;;;6241652;23;20000;-86
2022/04/17 03:30:24;;;;;;;7.95;5.65;;;11.90;99.90;;;;;;6241697;23;20000;-85
2022/04/17 03:32:50;;;;;;;6.80;5.20;;;11.90;99.90;;;;;;6241618;23;20079;-86
2022/04/17 03:35:17;;;;;;;6.72;5.57;;;11.80;99.90;;;;;;6242052;23;20476;-86
2022/04/17 03:37:43;;;;;;;7.28;5.90;;;11.80;99.90;;;;;;6241777;23;20023;-86
2022/04/17 03:40:16;;;;;;;8.48;5.70;;;11.80;99.90;;;;;;6215833;23;20464;-87
2022/04/17 03:42:42;;;;;;;7.00;5.15;;;11.80;99.90;;;;;;6241468;23;20000;-86
2022/04/17 03:45:19;;;;;;;8.20;5.40;;;11.80;99.90;;;;;;6242660;23;20050;-86
2022/04/17 03:47:45;;;;;;;8.15;5.80;;;11.70;99.90;;;;;;6242033;23;20053;-85
2022/04/17 03:50:11;;;;;;;6.53;5.78;;;11.70;99.90;;;;;;6242756;23;20001;-86
2022/04/17 03:52:45;;;;;;;7.28;5.82;;;11.70;99.90;;;;;;6215833;23;20053;-85
2022/04/17 03:55:11;;;;;;;7.03;5.40;;;11.70;99.90;;;;;;6242514;23;20004;-86
2022/04/17 03:57:38;;;;;;;6.80;5.32;;;11.70;99.90;;;;;;6215664;23;20000;-86
2022/04/17 04:00:05;;;;;;;8.00;5.53;;;11.70;99.90;;;;;;6241599;23;20457;-88
2022/04/17 04:02:31;;;;;;;8.45;5.47;;;11.70;99.90;;;;;;6241607;23;20038;-85
2022/04/17 04:04:57;;;;;;;6.45;5.55;;;11.70;99.90;;;;;;6240942;23;20357;-85
2022/04/17 04:07:24;;;;;;;7.32;5.18;;;11.60;99.90;;;;;;6214339;23;20004;-85
2022/04/17 04:09:49;;;;;;;8.60;5.82;;;11.70;99.90;;;;;;6241146;23;20011;-84
2022/04/17 04:12:15;;;;;;;11.50;5.85;;;11.60;99.90;;;;;;6241129;23;20000;-85
2022/04/17 04:14:41;;;;;;;8.20;6.05;;;;;;;;;;6242254;23;20000;-87
2022/04/17 04:17:07;;;;;;;7.40;5.35;;;11.50;99.90;;;;;;6214339;23;20036;-85
2022/04/17 04:19:32;;;;;;;6.72;5.85;;;11.50;99.90;;;;;;6241168;23;20338;-84
2022/04/17 04:21:58;;;;;;;7.65;5.43;;;11.50;99.90;;;;;;6214164;23;20337;-84
2022/04/17 04:24:24;;;;;;;8.05;5.70;;;11.50;99.90;;;;;;6240852;23;20015;-86
2022/04/17 04:29:38;;;;;;;7.40;4.85;;;11.50;99.90;;;;;;6240917;23;20039;-84
2022/04/17 04:32:05;;;;;;;8.70;5.30;;;11.40;99.90;;;;;;6214031;23;20414;-85
2022/04/17 04:34:30;;;;;;;8.45;5.63;;;11.30;99.90;;;;;;6214067;23;20070;-85
2022/04/17 04:36:56;;;;;;;8.45;5.93;;;11.30;99.90;;;;;;6240884;23;20004;-84
2022/04/17 04:39:22;;;;;;;7.57;5.13;;;11.30;99.90;;;;;;6213925;23;20011;-84
2022/04/17 04:41:47;;;;;;;6.82;4.70;;;11.30;99.90;;;;;;6240611;23;20089;-86
2022/04/17 04:44:13;;;;;;;6.47;5.10;;;11.30;99.90;;;;;;6242036;23;20008;-88
2022/04/17 04:46:39;;;;;;;8.45;5.25;;;11.20;99.90;;;;;;6214169;23;20050;-88
2022/04/17 04:51:50;;;;;;;5.97;4.85;;;11.30;99.90;;;;;;6240924;23;20015;-86
2022/04/17 04:54:16;;;;;;;7.57;5.25;;;11.20;99.90;;;;;;6240710;23;20023;-85
2022/04/17 04:56:41;;;;;;;6.22;4.93;;;11.20;99.90;;;;;;6241818;23;20067;-84
2022/04/17 04:59:07;;;;;;;5.53;4.85;;;11.20;99.90;;;;;;6240804;23;20079;-85
2022/04/17 05:01:32;;;;;;;5.82;4.75;;;11.20;99.90;;;;;;6213728;23;20007;-85
2022/04/17 05:03:58;;;;;;;6.05;4.78;;;11.20;99.90;;;;;;6213737;23;20015;-85
2022/04/17 05:06:24;;;;;;;7.38;4.78;;;11.20;99.90;;;;;;6213773;23;20083;-86
2022/04/17 05:08:49;;;;;;;5.68;4.70;;;11.20;99.90;;;;;;6240635;23;20046;-84
2022/04/17 05:11:15;;;;;;;5.38;4.88;;;11.20;99.90;;;;;;6241935;23;20000;-85
2022/04/17 05:13:41;;;;;;;6.70;4.60;;;11.20;99.90;;;;;;6241152;23;20000;-84
2022/04/17 05:16:07;;;;;;;5.53;4.63;;;11.20;99.90;;;;;;6240668;23;20396;-85
2022/04/17 05:18:33;;;;;;;9.18;5.03;;;11.20;99.90;;;;;;6240601;23;20437;-85
2022/04/17 05:20:58;;;;;;;5.80;4.70;;;11.10;99.90;;;;;;6240544;23;20004;-86
2022/04/17 05:23:30;;;;;;;7.22;5.10;;;11.10;99.90;;;;;;6214505;23;20015;-86
2022/04/17 05:25:58;;;;;;;10.50;4.35;;;11.10;99.90;;;;;;6215968;23;20396;-84
2022/04/17 05:28:24;;;;;;;6.38;4.70;;;11.10;99.90;;;;;;6240705;23;20071;-84
2022/04/17 05:30:50;;;;;;;6.25;4.60;;;11.10;99.90;;;;;;6240475;23;20093;-84
2022/04/17 05:33:22;;;;;;;6.22;4.60;;;11.10;99.90;;;;;;6241478;23;20004;-85
2022/04/17 05:35:49;;;;;;;5.95;4.40;;;11.10;99.90;;;;;;6240313;23;20000;-84
2022/04/17 05:38:15;;;;;;;5.20;4.38;;;11.10;99.90;;;;;;6241646;23;20000;-83
2022/04/17 05:40:47;;;;;;;5.18;4.55;;;11.10;99.90;;;;;;6240537;23;20004;-84
2022/04/17 05:43:13;;;;;;;5.43;4.45;;;11.10;99.90;;;;;;6240349;23;20004;-85
2022/04/17 05:45:39;;;;;;;5.07;4.55;;;11.10;99.90;;;;;;6239459;23;20008;-86
2022/04/17 05:48:07;;;;;;;6.03;4.70;;;11.10;99.90;;;;;;6213357;23;20043;-84
2022/04/17 05:50:33;;;;;;;6.32;4.93;;;11.10;99.90;;;;;;6241604;23;20004;-85
2022/04/17 05:53:00;;;;;;;5.38;4.28;;;11.10;99.90;;;;;;6241866;23;20425;-85
2022/04/17 05:55:27;;;;;;;4.97;4.22;;;11.10;99.90;;;;;;6241406;23;20000;-84
2022/04/17 05:57:52;;;;;;;6.28;4.65;;;11.10;99.90;;;;;;6214748;23;20441;-84
2022/04/17 06:00:18;;;;;;;8.13;4.32;;;11.10;99.90;;;;;;6241824;23;20039;-85
2022/04/17 06:02:46;;;;;;;4.68;4.20;;;11.10;99.90;;;;;;6242413;23;20459;-86
2022/04/17 06:05:13;;;;;;;6.47;4.30;;;11.10;99.90;;;;;;6241583;23;20012;-85
2022/04/17 06:07:40;;;;;;;5.55;4.22;;;11.10;99.90;;;;;;6241739;23;20024;-86
2022/04/17 06:10:08;;;;;;;7.63;4.38;;;11.10;99.90;;;;;;6214444;23;20012;-86
2022/04/17 06:12:34;;;;;;;5.05;4.10;;;11.20;99.90;;;;;;6241499;23;20392;-85
2022/04/17 06:15:00;;;;;;;4.78;4.03;;;11.20;99.90;;;;;;6214706;23;20030;-87
2022/04/17 06:17:26;;;;;;;4.40;4.00;;;11.20;99.90;;;;;;6241012;23;20434;-85
2022/04/17 06:19:51;;;;;;;5.88;4.30;;;11.30;99.90;;;;;;6241689;23;20003;-87
2022/04/17 06:22:18;;;;;;;5.88;4.25;;;11.30;99.90;;;;;;6242371;23;20075;-85
2022/04/17 06:24:44;;;;;;;4.25;3.83;;;11.30;99.90;;;;;;6242433;23;20043;-85
2022/04/17 06:27:10;;;;;;;5.03;3.88;;;11.40;99.90;;;;;;6214453;23;20083;-86
2022/04/17 06:29:36;;;;;;;7.32;3.88;;;11.40;99.90;;;;;;6241483;23;20441;-84
2022/04/17 06:32:02;;;;;;;4.50;4.10;;;11.50;99.90;;;;;;6241215;23;20333;-86
2022/04/17 06:34:27;;;;;;;4.90;3.80;;;11.50;99.90;;;;;;6241336;23;20000;-85
2022/04/17 06:36:53;;;;;;;5.25;3.97;;;11.50;99.90;;;;;;6241386;23;20003;-84
2022/04/17 06:39:19;;;;;;;4.40;3.85;;;11.60;99.90;;;;;;6241570;23;20004;-86
2022/04/17 06:41:45;;;;;;;6.32;3.90;;;11.60;99.90;;;;;;6242320;23;20000;-85
2022/04/17 06:44:11;;;;;;;6.18;3.60;;;11.70;99.90;;;;;;6241048;23;20082;-85
2022/04/17 06:46:38;;;;;;;3.85;3.50;;;11.70;99.90;;;;;;6240855;23;20003;-86
2022/04/17 06:49:04;;;;;;;3.55;3.25;;;11.80;99.90;;;;;;6214065;23;20012;-86
2022/04/17 06:51:29;;;;;;;4.97;3.53;;;11.70;99.90;;;;;;6214357;23;20518;-84
2022/04/17 06:53:55;;;;;;;5.13;3.60;;;11.80;99.90;;;;;;6241579;23;20019;-90
2022/04/17 06:56:20;;;;;;;4.78;3.45;;;11.90;99.90;;;;;;6241105;23;20095;-88
2022/04/17 06:58:49;;;;;;;3.60;3.30;;;11.90;99.90;;;;;;6241818;23;20004;-89
2022/04/17 07:01:15;;;;;;;4.63;3.28;;;12.00;99.90;;;;;;6214586;23;20027;-88
2022/04/17 07:03:45;;;;;;;6.68;3.00;;;12.00;99.90;;;;;;6241033;23;20449;-87
2022/04/17 07:06:11;;;;;;;4.00;3.15;;;12.00;99.90;;;;;;6240971;23;19996;-89
2022/04/17 07:08:37;;;;;;;3.53;2.85;;;12.10;99.90;;;;;;6241089;23;19996;-88
2022/04/17 07:11:02;;;;;;;3.55;3.00;;;12.10;99.90;;;;;;6240626;23;20004;-86
2022/04/17 07:13:28;;;;;;;3.42;3.08;;;12.20;99.90;;;;;;6241028;23;20468;-87
2022/04/17 07:15:54;;;;;;;4.07;3.00;;;12.20;99.90;;;;;;6213957;23;20043;-86
2022/04/17 07:18:20;;;;;;;5.32;3.10;;;12.30;99.90;;;;;;6215342;23;20008;-89
2022/04/17 07:20:46;;;;;;;3.08;2.78;;;12.40;99.90;;;;;;6215210;23;20004;-88
2022/04/17 07:23:11;;;;;;;6.65;2.90;;;12.40;99.90;;;;;;6213831;23;20155;-91
2022/04/17 07:25:38;;;;;;;3.58;2.92;;;12.40;99.90;;;;;;6214076;23;20471;-87
2022/04/17 07:28:04;;;;;;;7.22;3.00;;;12.40;99.90;;;;;;6240374;23;20001;-89
2022/04/17 07:30:32;;;;;;;3.60;3.00;;;12.50;99.90;;;;;;6240704;23;20460;-88
2022/04/17 07:33:00;;;;;;;7.97;3.35;;;12.60;99.90;;;;;;6241081;23;20122;-86
2022/04/17 07:35:27;;;;;;;4.15;3.15;;;12.60;99.90;;;;;;6240313;23;20011;-89
2022/04/17 07:37:55;;;;;;;3.67;3.10;;;12.60;99.90;;;;;;6240709;23;19996;-89
2022/04/17 07:40:26;;;;;;;3.78;3.00;;;12.70;99.90;;;;;;6214404;23;20058;-88
2022/04/17 07:42:54;;;;;;;5.78;3.00;;;12.80;99.90;;;;;;6213990;23;20050;-89
2022/04/17 07:45:21;;;;;;;3.33;2.90;;;12.90;99.90;;;;;;6243023;23;20087;-87
2022/04/17 07:47:47;;;;;;;3.20;2.90;;;13.00;99.90;;;;;;6242878;23;20441;-88
2022/04/17 07:50:16;;;;;;;5.20;3.15;;;13.00;99.90;;;;;;6240898;23;20000;-89
2022/04/17 07:52:42;;;;;;;;;;;13.10;99.90;;;;;;6214308;23;20091;-88
2022/04/17 07:55:13;;;;;;;4.00;3.25;;;13.20;99.90;;;;;;6240143;23;19935;-87
2022/04/17 07:57:56;;;;;;;3.45;3.05;;;13.20;99.90;;;;;;6240453;23;20007;-88
2022/04/17 08:00:23;;;;;;;3.38;2.90;;;13.30;99.90;;;;;;6254801;23;20011;-88
2022/04/17 08:02:52;;;;;;;3.50;3.20;;;13.40;99.90;;;;;;6258509;23;20027;-88
2022/04/17 08:05:18;;;;;;;6.10;3.17;;;13.50;99.90;;;;;;6266061;23;20008;-85
2022/04/17 08:07:44;;;;;;;4.93;3.30;;;13.50;99.90;;;;;;6248300;23;20497;-90
2022/04/17 08:10:09;;;;;;;3.22;2.92;;;13.60;99.90;;;;;;6240636;23;20433;-87
2022/04/17 08:12:35;;;;;;;3.22;2.92;;;13.60;99.90;;;;;;6240996;23;20071;-90
2022/04/17 08:15:01;;;;;;;4.55;3.30;;;13.80;99.90;;;;;;6240701;23;19996;-90
2022/04/17 08:17:27;;;;;;;4.18;3.08;;;13.80;99.90;;;;;;6213836;23;20004;-90
2022/04/17 08:19:52;;;;;;;3.45;3.15;;;13.90;99.90;;;;;;6240663;23;20088;-86
2022/04/17 08:22:18;;;;;;;3.85;3.47;;;13.90;99.90;;;;;;6240798;23;20015;-90
2022/04/17 08:24:44;;;;;;;3.65;3.10;;;14.00;99.90;;;;;;6213333;23;20445;-91
2022/04/17 08:27:11;;;;;;;6.63;3.40;;;14.10;99.90;;;;;;6240302;23;20007;-88
2022/04/17 08:29:36;;;;;;;3.33;3.03;;;14.10;99.90;;;;;;6240637;23;20079;-90
2022/04/17 08:32:02;;;;;;;5.93;3.25;;;14.20;99.90;;;;;;6240275;23;20039;-87
2022/04/17 08:34:28;;;;;;;4.18;3.10;;;14.20;99.90;;;;;;6240392;23;20000;-90
2022/04/17 08:36:54;;;;;;;6.22;3.40;;;14.30;99.90;;;;;;6241124;23;20004;-90
2022/04/17 08:39:20;;;;;;;3.63;3.28;;;14.30;99.90;;;;;;6214229;23;20090;-89
2022/04/17 08:41:47;;;;;;;3.67;3.30;;;14.40;99.90;;;;;;6240532;23;20082;-90
2022/04/17 08:44:13;;;;;;;3.50;3.20;;;14.40;99.90;;;;;;6240040;23;20016;-89
2022/04/17 08:46:41;;;;;;;5.82;3.40;;;14.60;99.90;;;;;;6240357;23;20451;-89
2022/04/17 08:49:10;;;;;;;3.70;3.40;;;14.60;99.90;;;;;;6213378;23;20015;-89
2022/04/17 08:51:39;;;;;;;4.65;2.92;;;14.70;99.90;;;;;;6240344;23;20000;-87
2022/04/17 08:54:09;;;;;;;4.25;3.05;;;14.80;99.90;;;;;;6239922;23;20078;-87
2022/04/17 08:56:35;;;;;;;3.92;3.30;;;14.90;99.90;;;;;;6214198;23;20000;-88
2022/04/17 08:59:01;;;;;;;5.25;3.15;;;15.10;99.90;;;;;;6213646;23;20004;-88
2022/04/17 09:01:27;;;;;;;3.80;3.40;;;15.10;99.90;;;;;;6240157;23;20008;-89
2022/04/17 09:03:53;;;;;;;6.07;3.22;;;15.20;99.90;;;;;;6213380;23;20012;-85
2022/04/17 09:06:20;;;;;;;3.83;2.95;;;15.20;99.90;;;;;;6214033;23;20465;-88
2022/04/17 09:09:05;;;;;;;8.07;3.17;;;15.30;99.90;;;;;;6240538;23;20055;-90
2022/04/17 09:11:34;;;;;;;8.20;3.20;;;15.40;99.90;;;;;;6240253;23;20031;-88
2022/04/17 09:14:03;;;;;;;5.30;3.13;;;15.50;99.90;;;;;;6242094;23;20068;-89
2022/04/17 09:16:35;;;;;;;3.10;2.80;;;15.60;99.90;;;;;;6243232;23;20007;-89
2022/04/17 09:19:12;;;;;;;4.25;2.53;;;15.50;99.90;;;;;;6244275;23;20473;-92
2022/04/17 09:21:38;;;;;;;5.23;2.90;;;15.60;99.90;;;;;;6249342;23;19996;-90
2022/04/17 09:24:15;;;;;;;2.97;2.67;;;15.60;99.90;;;;;;6240564;23;20008;-92
2022/04/17 09:26:51;;;;;;;3.93;2.90;;;15.70;98.60;;;;;;6241129;23;20072;-91
2022/04/17 09:29:22;;;;;;;4.30;2.70;;;15.80;99.80;;;;;;6214018;23;20008;-92
2022/04/17 09:32:14;;;;;;;3.10;2.80;;;15.80;97.80;;;;;;6214054;23;20007;-86
2022/04/17 09:34:56;;;;;;;3.65;2.83;;;15.80;98.30;;;;;;6214009;23;20004;-92
2022/04/17 09:37:24;;;;;;;4.35;2.80;;;15.90;97.70;;;;;;6244462;23;20026;-95
2022/04/17 09:39:52;;;;;;;3.40;2.80;;;15.90;96.60;;;;;;6215207;23;20032;-92
2022/04/17 09:42:22;;;;;;;;;;;15.90;97.60;;;;;;6241367;23;20004;-89
2022/04/17 09:44:50;;;;;;;3.80;2.78;;;16.00;97.20;;;;;;6245328;23;19908;-92
2022/04/17 09:47:22;;;;;;;4.03;2.88;;;16.00;95.20;;;;;;6250496;23;20031;-90
2022/04/17 09:49:55;;;;;;;3.97;2.70;;;16.10;95.60;;;;;;6248446;23;20004;-90
2022/04/17 09:52:23;;;;;;;2.88;2.67;;;16.00;89.90;;;;;;6244044;23;20028;-90
2022/04/17 09:54:50;;;;;;;6.10;2.50;;;16.10;93.80;;;;;;6242167;23;20007;-88
2022/04/17 09:57:29;;;;;;;3.10;2.80;;;16.20;94.40;;;;;;6242849;23;20000;-91
2022/04/17 10:00:06;;;;;;;2.80;2.60;;;16.20;94.40;;;;;;6252543;23;20000;-87
2022/04/17 10:02:33;;;;;;;12.65;3.42;;;16.30;92.10;;;;;;6220077;23;20011;-89
2022/04/17 10:05:00;;;;;;;3.90;3.50;;;16.30;92.60;;;;;;6215745;23;20016;-90
2022/04/17 10:07:27;;;;;;;4.15;3.15;;;16.30;93.10;;;;;;6241095;23;20430;-87
2022/04/17 10:09:53;;;;;;;4.68;2.90;;;16.50;94.40;;;;;;6244198;23;20004;-92
2022/04/17 10:12:20;;;;;;;9.07;6.28;;;16.60;91.50;;;;;;6246775;23;20374;-91
2022/04/17 10:14:50;;;;;;;4.60;3.22;;;16.60;91.60;;;;;;6223219;23;20042;-94
2022/04/17 10:17:21;;;;;;;7.05;4.95;;;16.60;91.70;;;;;;6223133;23;20329;-95
2022/04/17 10:19:51;;;;;;;2.70;2.50;;;16.60;91.90;;;;;;6218584;23;20011;-92
2022/04/17 10:22:20;;;;;;;2.60;2.40;;;16.70;91.10;;;;;;6242261;23;19996;-86
2022/04/17 10:24:51;;;;;;;4.55;3.15;;;16.70;90.90;;;;;;6239860;23;20019;-90
2022/04/17 10:27:26;;;;;;;4.00;2.40;;;16.70;90.60;;;;;;6240429;23;20000;-86
2022/04/17 10:30:10;;;;;;;2.83;2.42;;;16.80;86.80;;;;;;6214485;23;20028;-90
2022/04/17 10:32:56;;;;;;;4.63;2.35;;;16.80;89.20;;;;;;6242315;23;20000;-89
2022/04/17 10:35:37;;;;;;;2.47;2.28;;;16.80;89.50;;;;;;6243878;23;20028;-90
2022/04/17 10:38:29;;;;;;;2.60;2.40;;;16.90;85.80;;;;;;6244058;23;20004;-88
2022/04/17 10:40:59;;;;;;;2.90;2.10;;;16.90;87.40;;;;;;6255961;23;20083;-89
2022/04/17 10:43:53;;;;;;;3.10;2.38;;;16.90;85.80;;;;;;6243621;23;20437;-86
2022/04/17 10:46:20;;;;;;;2.88;2.10;;;17.00;86.60;;;;;;6214207;23;20352;-88
2022/04/17 10:48:57;;;;;;;2.15;1.95;;;17.00;77.70;;;;;;6242626;23;20007;-89
2022/04/17 10:51:38;;;;;;;4.68;2.17;;;16.90;82.30;;;;;;6242572;23;20524;-88
2022/04/17 10:54:07;;;;;;;2.75;2.33;;;17.00;83.90;;;;;;6241238;23;20001;-88
2022/04/17 10:56:56;;;;;;;3.58;2.35;;;17.00;84.00;;;;;;6241343;23;19996;-85
2022/04/17 10:59:30;;;;;;;7.30;2.30;;;17.10;83.60;;;;;;6217100;23;20015;-90
2022/04/17 11:02:10;;;;;;;2.58;2.38;;;17.20;84.00;;;;;;6243499;23;20031;-90
2022/04/17 11:04:54;;;;;;;4.38;2.78;;;17.10;83.00;;;;;;6243576;23;20019;-88
2022/04/17 11:07:21;;;;;;;3.05;2.65;;;17.00;81.10;;;;;;6241960;23;20024;-89
2022/04/17 11:09:47;;;;;;;7.03;2.80;;;17.00;65.40;;;;;;6244304;23;20011;-87
2022/04/17 11:12:22;;;;;;;3.53;2.40;;;17.00;81.40;;;;;;6242397;23;20022;-89
2022/04/17 11:15:02;;;;;;;5.43;2.20;;;17.00;80.10;;;;;;6215838;23;20090;-88
2022/04/17 11:17:29;;;;;;;3.38;2.13;;;17.10;81.80;;;;;;6217758;23;20012;-87
2022/04/17 11:19:57;;;;;;;2.72;2.22;;;17.30;81.20;;;;;;6242577;23;19997;-88
2022/04/17 11:22:33;;;;;;;6.20;2.65;;;17.40;80.00;;;;;;6242141;23;20010;-88
2022/04/17 11:25:02;;;;;;;3.67;2.80;;;17.30;76.70;;;;;;6215411;23;20012;-90
2022/04/17 11:27:41;;;;;;;2.40;2.20;;;17.30;79.80;;;;;;6243106;23;19996;-89
2022/04/17 11:30:13;;;;;;;2.63;2.17;;;17.40;79.90;;;;;;6214577;23;20064;-92
2022/04/17 11:32:39;;;;;;;2.63;2.13;;;17.40;73.70;;;;;;6242127;23;19996;-89
2022/04/17 11:35:09;;;;;;;2.30;2.10;;;17.40;79.20;;;;;;6241330;23;20218;-92
2022/04/17 11:37:35;;;;;;;2.25;1.95;;;17.40;80.80;;;;;;6242093;23;20437;-93
2022/04/17 11:40:15;;;;;;;5.82;2.08;;;17.60;80.00;;;;;;6242807;23;20051;-90
2022/04/17 11:42:45;;;;;;;2.65;2.20;;;17.60;80.50;;;;;;6215503;23;20008;-87
2022/04/17 11:45:14;;;;;;;3.58;1.92;;;17.70;77.60;;;;;;6241547;23;20019;-87
2022/04/17 11:47:42;;;;;;;2.17;1.98;;;17.70;75.60;;;;;;6241500;23;20000;-86
2022/04/17 11:50:09;;;;;;;4.50;1.80;;;17.60;74.40;;;;;;6240840;23;20004;-87
2022/04/17 11:52:36;;;;;;;3.05;1.95;;;17.50;73.20;;;;;;6215287;23;20510;-85
2022/04/17 11:55:02;;;;;;;2.20;2.10;;;17.50;76.30;;;;;;6242742;23;20023;-85
2022/04/17 11:57:28;;;;;;;2.85;2.20;;;17.40;73.30;;;;;;6243275;23;20000;-86
2022/04/17 11:59:56;;;;;;;2.80;1.90;;;17.50;74.40;;;;;;6215279;23;20000;-86
2022/04/17 12:02:27;;;;;;;2.53;2.05;;;17.40;73.60;;;;;;6241901;23;20057;-89
2022/04/17 12:04:55;;;;;;;3.88;2.10;;;17.40;72.80;;;;;;6213833;23;20051;-86
2022/04/17 12:07:20;;;;;;;;;;;17.30;63.70;;;;;;6214186;23;20008;-86
2022/04/17 12:09:46;;;;;;;2.30;2.20;;;17.20;72.40;;;;;;6240934;23;19976;-86
2022/04/17 12:12:14;;;;;;;4.72;2.20;;;17.30;74.10;;;;;;6214825;23;20000;-86
2022/04/17 12:14:40;;;;;;;3.58;2.25;;;17.40;75.40;;;;;;6215253;23;20008;-85
2022/04/17 12:17:06;;;;;;;3.55;2.00;;;17.50;73.20;;;;;;6214781;23;20027;-88
2022/04/17 12:19:32;;;;;;;3.47;2.97;;;17.50;67.30;;;;;;6213638;23;20448;-86
2022/04/17 12:21:58;;;;;;;4.00;2.20;;;17.50;73.80;;;;;;6241409;23;20000;-87
2022/04/17 12:24:25;;;;;;;2.30;1.98;;;17.40;70.40;;;;;;6239912;23;20098;-85
2022/04/17 12:26:52;;;;;;;4.75;2.15;;;17.40;75.70;;;;;;6240281;23;20451;-86
2022/04/17 12:29:18;;;;;;;2.25;2.05;;;17.50;75.50;;;;;;6239870;23;20024;-88
2022/04/17 12:31:44;;;;;;;2.47;2.28;;;17.60;75.80;;;;;;6240129;23;20007;-86
2022/04/17 12:34:14;;;;;;;3.22;2.20;;;17.80;68.80;;;;;;6239767;23;20020;-85
2022/04/17 12:36:42;;;;;;;2.80;2.17;;;17.80;74.70;;;;;;6241604;23;20026;-86
2022/04/17 12:39:08;;;;;;;2.38;2.17;;;17.90;75.60;;;;;;6237952;23;19996;-87
2022/04/17 12:41:42;;;;;;;4.38;2.47;;;17.80;74.30;;;;;;6213733;23;20058;-87
2022/04/17 12:44:12;;;;;;;2.10;1.90;;;17.50;66.20;;;;;;6211937;23;20019;-85
2022/04/17 12:46:42;;;;;;;2.60;2.03;;;17.50;70.10;;;;;;6239150;23;20008;-86
2022/04/17 12:49:14;;;;;;;2.00;1.83;;;17.60;72.80;;;;;;6238315;23;20007;-86
2022/04/17 12:51:52;;;;;;;4.00;2.00;;;17.70;74.50;;;;;;6239262;23;20002;-88
2022/04/17 12:54:17;;;;;;;;;;;17.80;68.50;;;;;;6239733;23;20004;-85
2022/04/17 12:56:43;;;;;;;2.22;1.95;;;17.90;72.90;;;;;;6238610;23;19934;-86
2022/04/17 12:59:11;;;;;;;2.10;1.90;;;17.80;68.40;;;;;;6239300;23;20134;-85
2022/04/17 13:01:39;;;;;;;3.60;1.90;;;17.70;70.50;;;;;;6239265;23;20000;-86
2022/04/17 13:04:09;;;;;;;3.45;2.00;;;17.70;68.60;;;;;;6238907;23;20022;-86